sensor_id;sensor_type;location;lat;lon;timestamp;temperature;humidity
10889;DHT22;5497;51.388;6.780;2023-02-15T00:00:41;2.40;99.90
10889;DHT22;5497;51.388;6.780;2023-02-15T00:03:08;2.40;99.90
10889;DHT22;5497;51.388;6.780;2023-02-15T00:05:35;2.40;99.90
10889;DHT22;5497;51.388;6.780;2023-02-15T00:08:02;2.40;99.90
10889;DHT22;5497;51.388;6.780;2023-02-15T00:10:29;2.40;99.90
10889;DHT22;5497;51.388;6.780;2023-02-15T00:12:55;2.40;99.90
10889;DHT22;5497;51.388;6.780;2023-02-15T00:15:22;2.50;99.90
10889;DHT22;5497;51.388;6.780;2023-02-15T00:17:52;2.50;99.90
10889;DHT22;5497;51.388;6.780;2023-02-15T00:20:19;2.40;99.90
10889;DHT22;5497;51.388;6.780;2023-02-15T00:22:46;2.40;99.90
10889;DHT22;5497;51.388;6.780;2023-02-15T00:25:13;2.50;99.90
10889;DHT22;5497;51.388;6.780;2023-02-15T00:27:40;2.50;99.90
10889;DHT22;5497;51.388;6.780;2023-02-15T00:30:07;2.60;99.90
10889;DHT22;5497;51.388;6.780;2023-02-15T00:32:34;2.60;99.90
10889;DHT22;5497;51.388;6.780;2023-02-15T00:35:02;2.60;99.90
10889;DHT22;5497;51.388;6.780;2023-02-15T00:37:29;2.60;99.90
10889;DHT22;5497;51.388;6.780;2023-02-15T00:39:56;2.60;99.90
10889;DHT22;5497;51.388;6.780;2023-02-15T00:42:23;2.60;99.90
10889;DHT22;5497;51.388;6.780;2023-02-15T00:44:51;2.60;99.90
10889;DHT22;5497;51.388;6.780;2023-02-15T00:47:19;2.60;99.90
10889;DHT22;5497;51.388;6.780;2023-02-15T00:49:46;2.50;99.90
10889;DHT22;5497;51.388;6.780;2023-02-15T00:52:15;2.50;99.90
10889;DHT22;5497;51.388;6.780;2023-02-15T00:54:41;2.40;99.90
10889;DHT22;5497;51.388;6.780;2023-02-15T00:57:08;2.50;99.90
10889;DHT22;5497;51.388;6.780;2023-02-15T00:59:35;2.50;99.90
10889;DHT22;5497;51.388;6.780;2023-02-15T01:02:02;2.50;99.90
10889;DHT22;5497;51.388;6.780;2023-02-15T01:04:29;2.50;99.90
10889;DHT22;5497;51.388;6.780;2023-02-15T01:06:56;2.50;99.90
10889;DHT22;5497;51.388;6.780;2023-02-15T01:09:24;2.50;99.90
10889;DHT22;5497;51.388;6.780;2023-02-15T01:11:51;4.00;99.90
10889;DHT22;5497;51.388;6.780;2023-02-15T01:14:18;2.50;99.90
10889;DHT22;5497;51.388;6.780;2023-02-15T01:16:45;2.50;99.90
10889;DHT22;5497;51.388;6.780;2023-02-15T01:19:12;2.50;99.90
10889;DHT22;5497;51.388;6.780;2023-02-15T01:21:39;2.60;99.90
10889;DHT22;5497;51.388;6.780;2023-02-15T01:24:10;2.60;99.90
10889;DHT22;5497;51.388;6.780;2023-02-15T01:26:39;2.60;99.90
10889;DHT22;5497;51.388;6.780;2023-02-15T01:29:06;2.50;99.90
10889;DHT22;5497;51.388;6.780;2023-02-15T01:31:33;2.70;99.90
10889;DHT22;5497;51.388;6.780;2023-02-15T01:34:00;2.50;99.90
10889;DHT22;5497;51.388;6.780;2023-02-15T01:36:27;2.60;99.90
10889;DHT22;5497;51.388;6.780;2023-02-15T01:38:54;2.50;99.90
10889;DHT22;5497;51.388;6.780;2023-02-15T01:41:20;2.50;99.90
10889;DHT22;5497;51.388;6.780;2023-02-15T01:43:50;2.50;99.90
10889;DHT22;5497;51.388;6.780;2023-02-15T01:46:18;2.50;99.90
10889;DHT22;5497;51.388;6.780;2023-02-15T01:48:50;2.50;99.90
10889;DHT22;5497;51.388;6.780;2023-02-15T01:51:19;2.50;99.90
10889;DHT22;5497;51.388;6.780;2023-02-15T01:53:49;2.50;99.90
10889;DHT22;5497;51.388;6.780;2023-02-15T01:56:18;2.50;99.90
10889;DHT22;5497;51.388;6.780;2023-02-15T01:58:50;2.50;99.90
10889;DHT22;5497;51.388;6.780;2023-02-15T02:01:17;2.50;99.90
10889;DHT22;5497;51.388;6.780;2023-02-15T02:03:47;2.50;99.90
10889;DHT22;5497;51.388;6.780;2023-02-15T02:06:15;2.40;99.90
10889;DHT22;5497;51.388;6.780;2023-02-15T02:08:42;2.50;99.90
10889;DHT22;5497;51.388;6.780;2023-02-15T02:11:10;2.40;99.90
10889;DHT22;5497;51.388;6.780;2023-02-15T02:13:37;2.40;99.90
10889;DHT22;5497;51.388;6.780;2023-02-15T02:16:08;2.40;99.90
10889;DHT22;5497;51.388;6.780;2023-02-15T02:18:41;2.30;99.90
10889;DHT22;5497;51.388;6.780;2023-02-15T02:21:19;2.20;99.90
10889;DHT22;5497;51.388;6.780;2023-02-15T02:23:56;2.30;99.90
10889;DHT22;5497;51.388;6.780;2023-02-15T02:32:30;2.10;99.90
10889;DHT22;5497;51.388;6.780;2023-02-15T02:35:01;2.10;99.90
10889;DHT22;5497;51.388;6.780;2023-02-15T02:37:34;2.10;99.90
10889;DHT22;5497;51.388;6.780;2023-02-15T02:40:05;2.20;99.90
10889;DHT22;5497;51.388;6.780;2023-02-15T02:42:36;2.20;99.90
10889;DHT22;5497;51.388;6.780;2023-02-15T02:45:05;2.20;99.90
10889;DHT22;5497;51.388;6.780;2023-02-15T02:47:36;2.20;99.90
10889;DHT22;5497;51.388;6.780;2023-02-15T02:50:07;2.20;99.90
10889;DHT22;5497;51.388;6.780;2023-02-15T02:52:39;2.20;99.90
10889;DHT22;5497;51.388;6.780;2023-02-15T02:55:08;2.20;99.90
10889;DHT22;5497;51.388;6.780;2023-02-15T02:57:37;2.10;99.90
10889;DHT22;5497;51.388;6.780;2023-02-15T03:00:07;2.10;99.90
10889;DHT22;5497;51.388;6.780;2023-02-15T03:02:35;2.00;99.90
10889;DHT22;5497;51.388;6.780;2023-02-15T03:05:06;2.00;99.90
10889;DHT22;5497;51.388;6.780;2023-02-15T03:07:35;2.00;99.90
10889;DHT22;5497;51.388;6.780;2023-02-15T03:10:03;2.00;99.90
10889;DHT22;5497;51.388;6.780;2023-02-15T03:12:32;2.00;99.90
10889;DHT22;5497;51.388;6.780;2023-02-15T03:15:01;2.00;99.90
10889;DHT22;5497;51.388;6.780;2023-02-15T03:17:31;2.00;99.90
10889;DHT22;5497;51.388;6.780;2023-02-15T03:20:00;2.00;99.90
10889;DHT22;5497;51.388;6.780;2023-02-15T03:22:34;2.00;99.90
10889;DHT22;5497;51.388;6.780;2023-02-15T03:25:04;2.00;99.90
10889;DHT22;5497;51.388;6.780;2023-02-15T03:27:33;2.00;99.90
10889;DHT22;5497;51.388;6.780;2023-02-15T03:30:02;2.00;99.90
10889;DHT22;5497;51.388;6.780;2023-02-15T03:32:32;1.90;99.90
10889;DHT22;5497;51.388;6.780;2023-02-15T03:34:59;1.90;99.90
10889;DHT22;5497;51.388;6.780;2023-02-15T03:37:26;2.00;99.90
10889;DHT22;5497;51.388;6.780;2023-02-15T03:39:56;2.00;99.90
10889;DHT22;5497;51.388;6.780;2023-02-15T03:42:46;1.90;99.90
10889;DHT22;5497;51.388;6.780;2023-02-15T03:45:15;1.90;99.90
10889;DHT22;5497;51.388;6.780;2023-02-15T03:47:44;1.90;99.90
10889;DHT22;5497;51.388;6.780;2023-02-15T03:50:13;1.90;99.90
10889;DHT22;5497;51.388;6.780;2023-02-15T03:52:56;1.90;99.90
10889;DHT22;5497;51.388;6.780;2023-02-15T03:55:26;1.90;99.90
10889;DHT22;5497;51.388;6.780;2023-02-15T03:57:54;1.90;99.90
10889;DHT22;5497;51.388;6.780;2023-02-15T04:00:42;1.90;99.90
10889;DHT22;5497;51.388;6.780;2023-02-15T04:03:29;2.50;99.90
10889;DHT22;5497;51.388;6.780;2023-02-15T04:06:00;1.80;99.90
10889;DHT22;5497;51.388;6.780;2023-02-15T04:08:28;1.80;99.90
10889;DHT22;5497;51.388;6.780;2023-02-15T04:11:10;2.80;99.90
10889;DHT22;5497;51.388;6.780;2023-02-15T04:13:37;1.80;99.90
10889;DHT22;5497;51.388;6.780;2023-02-15T04:16:04;1.80;99.90
10889;DHT22;5497;51.388;6.780;2023-02-15T04:18:30;1.90;99.90
10889;DHT22;5497;51.388;6.780;2023-02-15T04:21:15;1.80;99.90
10889;DHT22;5497;51.388;6.780;2023-02-15T04:23:59;1.80;99.90
10889;DHT22;5497;51.388;6.780;2023-02-15T04:26:45;1.80;99.90
10889;DHT22;5497;51.388;6.780;2023-02-15T04:29:14;1.80;99.90
10889;DHT22;5497;51.388;6.780;2023-02-15T04:31:41;1.80;99.90
10889;DHT22;5497;51.388;6.780;2023-02-15T04:34:09;1.80;99.90
10889;DHT22;5497;51.388;6.780;2023-02-15T04:39:04;1.70;99.90
10889;DHT22;5497;51.388;6.780;2023-02-15T04:41:31;1.70;99.90
10889;DHT22;5497;51.388;6.780;2023-02-15T04:43:59;1.70;99.90
10889;DHT22;5497;51.388;6.780;2023-02-15T04:46:27;1.70;99.90
10889;DHT22;5497;51.388;6.780;2023-02-15T04:48:54;1.70;99.90
10889;DHT22;5497;51.388;6.780;2023-02-15T04:51:22;1.60;99.90
10889;DHT22;5497;51.388;6.780;2023-02-15T04:53:49;1.70;99.90
10889;DHT22;5497;51.388;6.780;2023-02-15T04:58:45;1.60;99.90
10889;DHT22;5497;51.388;6.780;2023-02-15T05:01:13;1.60;99.90
10889;DHT22;5497;51.388;6.780;2023-02-15T05:03:40;1.30;99.90
10889;DHT22;5497;51.388;6.780;2023-02-15T05:11:02;1.60;99.90
10889;DHT22;5497;51.388;6.780;2023-02-15T05:13:32;1.60;99.90
10889;DHT22;5497;51.388;6.780;2023-02-15T05:15:59;1.60;99.90
10889;DHT22;5497;51.388;6.780;2023-02-15T05:18:27;1.60;99.90
10889;DHT22;5497;51.388;6.780;2023-02-15T05:20:54;1.50;99.90
10889;DHT22;5497;51.388;6.780;2023-02-15T05:23:21;1.60;99.90
10889;DHT22;5497;51.388;6.780;2023-02-15T05:25:48;1.60;99.90
10889;DHT22;5497;51.388;6.780;2023-02-15T05:28:36;1.60;99.90
10889;DHT22;5497;51.388;6.780;2023-02-15T05:31:05;1.60;99.90
10889;DHT22;5497;51.388;6.780;2023-02-15T05:33:33;1.60;99.90
10889;DHT22;5497;51.388;6.780;2023-02-15T05:36:01;1.60;99.90
10889;DHT22;5497;51.388;6.780;2023-02-15T05:38:29;1.60;99.90
10889;DHT22;5497;51.388;6.780;2023-02-15T05:40:58;1.60;99.90
10889;DHT22;5497;51.388;6.780;2023-02-15T05:43:25;1.60;99.90
10889;DHT22;5497;51.388;6.780;2023-02-15T05:45:53;1.60;99.90
10889;DHT22;5497;51.388;6.780;2023-02-15T05:48:21;1.60;99.90
10889;DHT22;5497;51.388;6.780;2023-02-15T05:50:57;1.60;99.90
10889;DHT22;5497;51.388;6.780;2023-02-15T05:53:25;1.60;99.90
10889;DHT22;5497;51.388;6.780;2023-02-15T05:55:53;1.60;99.90
10889;DHT22;5497;51.388;6.780;2023-02-15T05:58:24;1.60;99.90
10889;DHT22;5497;51.388;6.780;2023-02-15T06:00:51;1.60;99.90
10889;DHT22;5497;51.388;6.780;2023-02-15T06:03:18;1.60;99.90
10889;DHT22;5497;51.388;6.780;2023-02-15T06:05:46;1.70;99.90
10889;DHT22;5497;51.388;6.780;2023-02-15T06:08:15;1.60;99.90
10889;DHT22;5497;51.388;6.780;2023-02-15T06:10:42;1.60;99.90
10889;DHT22;5497;51.388;6.780;2023-02-15T06:13:09;1.60;99.90
10889;DHT22;5497;51.388;6.780;2023-02-15T06:15:36;1.60;99.90
10889;DHT22;5497;51.388;6.780;2023-02-15T06:18:03;1.70;99.90
10889;DHT22;5497;51.388;6.780;2023-02-15T06:20:30;1.70;99.90
10889;DHT22;5497;51.388;6.780;2023-02-15T06:25:26;1.70;99.90
10889;DHT22;5497;51.388;6.780;2023-02-15T06:37:47;1.70;99.90
10889;DHT22;5497;51.388;6.780;2023-02-15T06:47:42;1.70;99.90
10889;DHT22;5497;51.388;6.780;2023-02-15T06:50:09;1.70;99.90
10889;DHT22;5497;51.388;6.780;2023-02-15T06:52:36;1.70;99.90
10889;DHT22;5497;51.388;6.780;2023-02-15T06:57:30;1.80;99.90
10889;DHT22;5497;51.388;6.780;2023-02-15T07:02:25;5.50;99.90
10889;DHT22;5497;51.388;6.780;2023-02-15T07:07:21;2.00;99.90
10889;DHT22;5497;51.388;6.780;2023-02-15T07:09:48;2.00;99.90
10889;DHT22;5497;51.388;6.780;2023-02-15T07:12:16;2.10;99.90
10889;DHT22;5497;51.388;6.780;2023-02-15T07:15:00;2.30;99.90
10889;DHT22;5497;51.388;6.780;2023-02-15T07:22:25;3.00;99.90
10889;DHT22;5497;51.388;6.780;2023-02-15T07:24:53;3.30;99.90
10889;DHT22;5497;51.388;6.780;2023-02-15T07:27:20;3.70;99.90
10889;DHT22;5497;51.388;6.780;2023-02-15T07:29:48;4.00;99.90
10889;DHT22;5497;51.388;6.780;2023-02-15T07:32:15;4.60;99.90
10889;DHT22;5497;51.388;6.780;2023-02-15T07:34:42;5.30;99.90
10889;DHT22;5497;51.388;6.780;2023-02-15T07:37:09;5.30;99.90
10889;DHT22;5497;51.388;6.780;2023-02-15T07:39:37;5.70;99.90
10889;DHT22;5497;51.388;6.780;2023-02-15T07:42:04;6.20;99.90
10889;DHT22;5497;51.388;6.780;2023-02-15T07:44:31;6.50;99.90
10889;DHT22;5497;51.388;6.780;2023-02-15T07:46:58;6.60;99.90
10889;DHT22;5497;51.388;6.780;2023-02-15T07:49:25;6.80;99.90
10889;DHT22;5497;51.388;6.780;2023-02-15T07:51:52;7.30;99.90
10889;DHT22;5497;51.388;6.780;2023-02-15T07:54:19;7.40;99.90
10889;DHT22;5497;51.388;6.780;2023-02-15T07:56:47;7.60;99.90
10889;DHT22;5497;51.388;6.780;2023-02-15T07:59:14;7.80;99.90
10889;DHT22;5497;51.388;6.780;2023-02-15T08:01:41;8.20;99.90
10889;DHT22;5497;51.388;6.780;2023-02-15T08:04:08;8.30;99.90
10889;DHT22;5497;51.388;6.780;2023-02-15T08:06:36;8.50;99.90
10889;DHT22;5497;51.388;6.780;2023-02-15T08:09:04;8.60;99.90
10889;DHT22;5497;51.388;6.780;2023-02-15T08:11:31;8.90;99.90
10889;DHT22;5497;51.388;6.780;2023-02-15T08:14:07;9.00;99.90
10889;DHT22;5497;51.388;6.780;2023-02-15T08:16:34;9.10;99.90
10889;DHT22;5497;51.388;6.780;2023-02-15T08:19:02;9.10;99.90
10889;DHT22;5497;51.388;6.780;2023-02-15T08:21:30;9.00;99.90
10889;DHT22;5497;51.388;6.780;2023-02-15T08:23:57;9.10;99.90
10889;DHT22;5497;51.388;6.780;2023-02-15T08:26:25;9.10;99.90
10889;DHT22;5497;51.388;6.780;2023-02-15T08:28:52;9.10;99.90
10889;DHT22;5497;51.388;6.780;2023-02-15T08:31:21;9.20;99.90
10889;DHT22;5497;51.388;6.780;2023-02-15T08:33:49;9.30;99.90
10889;DHT22;5497;51.388;6.780;2023-02-15T08:38:44;9.30;99.90
10889;DHT22;5497;51.388;6.780;2023-02-15T08:41:12;9.50;99.90
10889;DHT22;5497;51.388;6.780;2023-02-15T08:43:39;9.70;99.90
10889;DHT22;5497;51.388;6.780;2023-02-15T08:46:06;9.70;99.90
10889;DHT22;5497;51.388;6.780;2023-02-15T08:48:34;10.00;99.90
10889;DHT22;5497;51.388;6.780;2023-02-15T08:51:05;10.40;99.90
10889;DHT22;5497;51.388;6.780;2023-02-15T08:53:33;10.40;99.90
10889;DHT22;5497;51.388;6.780;2023-02-15T08:56:00;10.30;99.90
10889;DHT22;5497;51.388;6.780;2023-02-15T08:58:27;10.20;99.90
10889;DHT22;5497;51.388;6.780;2023-02-15T09:03:22;10.00;99.90
10889;DHT22;5497;51.388;6.780;2023-02-15T09:05:53;10.00;99.90
10889;DHT22;5497;51.388;6.780;2023-02-15T09:08:22;10.00;99.90
10889;DHT22;5497;51.388;6.780;2023-02-15T09:10:49;10.00;99.90
10889;DHT22;5497;51.388;6.780;2023-02-15T09:13:17;10.00;99.90
10889;DHT22;5497;51.388;6.780;2023-02-15T09:15:44;9.90;99.90
10889;DHT22;5497;51.388;6.780;2023-02-15T09:18:11;9.60;99.90
10889;DHT22;5497;51.388;6.780;2023-02-15T09:20:42;9.50;99.90
10889;DHT22;5497;51.388;6.780;2023-02-15T09:23:11;9.30;99.90
10889;DHT22;5497;51.388;6.780;2023-02-15T09:25:38;9.20;99.90
10889;DHT22;5497;51.388;6.780;2023-02-15T09:28:05;9.00;99.90
10889;DHT22;5497;51.388;6.780;2023-02-15T09:30:33;8.90;99.90
10889;DHT22;5497;51.388;6.780;2023-02-15T09:33:00;8.80;99.90
10889;DHT22;5497;51.388;6.780;2023-02-15T09:35:27;8.80;99.90
10889;DHT22;5497;51.388;6.780;2023-02-15T09:37:54;10.10;99.90
10889;DHT22;5497;51.388;6.780;2023-02-15T09:40:22;8.80;99.90
10889;DHT22;5497;51.388;6.780;2023-02-15T09:43:02;8.80;99.90
10889;DHT22;5497;51.388;6.780;2023-02-15T09:45:37;8.80;99.90
10889;DHT22;5497;51.388;6.780;2023-02-15T09:48:09;8.90;99.90
10889;DHT22;5497;51.388;6.780;2023-02-15T09:50:41;9.00;99.90
10889;DHT22;5497;51.388;6.780;2023-02-15T09:53:22;9.00;99.90
10889;DHT22;5497;51.388;6.780;2023-02-15T09:55:57;9.00;99.90
10889;DHT22;5497;51.388;6.780;2023-02-15T09:58:29;9.10;99.90
10889;DHT22;5497;51.388;6.780;2023-02-15T10:00:58;9.20;99.90
10889;DHT22;5497;51.388;6.780;2023-02-15T10:06:18;9.40;99.90
10889;DHT22;5497;51.388;6.780;2023-02-15T10:08:57;9.50;99.90
10889;DHT22;5497;51.388;6.780;2023-02-15T10:11:31;9.70;99.90
10889;DHT22;5497;51.388;6.780;2023-02-15T10:14:13;9.70;99.90
10889;DHT22;5497;51.388;6.780;2023-02-15T10:16:46;9.80;99.90
10889;DHT22;5497;51.388;6.780;2023-02-15T10:19:18;9.90;99.90
10889;DHT22;5497;51.388;6.780;2023-02-15T10:21:51;10.10;99.90
10889;DHT22;5497;51.388;6.780;2023-02-15T10:27:13;10.30;99.90
10889;DHT22;5497;51.388;6.780;2023-02-15T10:29:43;10.50;99.90
10889;DHT22;5497;51.388;6.780;2023-02-15T10:32:19;10.60;99.90
10889;DHT22;5497;51.388;6.780;2023-02-15T10:34:50;10.70;99.90
10889;DHT22;5497;51.388;6.780;2023-02-15T10:40:02;10.80;99.90
10889;DHT22;5497;51.388;6.780;2023-02-15T10:42:39;10.90;99.90
10889;DHT22;5497;51.388;6.780;2023-02-15T10:45:10;10.90;99.90
10889;DHT22;5497;51.388;6.780;2023-02-15T10:47:48;10.90;99.90
10889;DHT22;5497;51.388;6.780;2023-02-15T10:50:21;11.20;99.90
10889;DHT22;5497;51.388;6.780;2023-02-15T10:52:55;11.30;99.90
10889;DHT22;5497;51.388;6.780;2023-02-15T10:55:30;11.40;99.90
10889;DHT22;5497;51.388;6.780;2023-02-15T10:58:08;11.50;99.90
10889;DHT22;5497;51.388;6.780;2023-02-15T11:00:39;11.60;99.90
10889;DHT22;5497;51.388;6.780;2023-02-15T11:03:16;11.70;99.90
10889;DHT22;5497;51.388;6.780;2023-02-15T11:05:45;11.90;99.90
10889;DHT22;5497;51.388;6.780;2023-02-15T11:08:15;11.90;99.90
10889;DHT22;5497;51.388;6.780;2023-02-15T11:10:44;12.10;99.90
10889;DHT22;5497;51.388;6.780;2023-02-15T11:13:18;12.20;99.90
10889;DHT22;5497;51.388;6.780;2023-02-15T11:15:46;12.30;99.90
10889;DHT22;5497;51.388;6.780;2023-02-15T11:18:15;14.10;99.90
10889;DHT22;5497;51.388;6.780;2023-02-15T11:20:49;12.60;99.90
10889;DHT22;5497;51.388;6.780;2023-02-15T11:23:17;12.80;99.90
10889;DHT22;5497;51.388;6.780;2023-02-15T11:25:46;13.00;99.90
10889;DHT22;5497;51.388;6.780;2023-02-15T11:28:18;13.00;99.90
10889;DHT22;5497;51.388;6.780;2023-02-15T11:30:47;13.10;99.90
10889;DHT22;5497;51.388;6.780;2023-02-15T11:33:18;13.20;99.90
10889;DHT22;5497;51.388;6.780;2023-02-15T11:35:51;13.20;99.90
10889;DHT22;5497;51.388;6.780;2023-02-15T11:38:20;13.30;99.90
10889;DHT22;5497;51.388;6.780;2023-02-15T11:40:48;13.40;99.90
10889;DHT22;5497;51.388;6.780;2023-02-15T11:43:18;13.40;99.90
10889;DHT22;5497;51.388;6.780;2023-02-15T11:45:47;13.50;99.90
10889;DHT22;5497;51.388;6.780;2023-02-15T11:48:17;13.60;99.90
10889;DHT22;5497;51.388;6.780;2023-02-15T11:50:44;13.60;99.90
10889;DHT22;5497;51.388;6.780;2023-02-15T11:53:12;13.70;99.90
10889;DHT22;5497;51.388;6.780;2023-02-15T11:55:41;13.70;99.90
10889;DHT22;5497;51.388;6.780;2023-02-15T11:58:09;13.80;99.90
10889;DHT22;5497;51.388;6.780;2023-02-15T12:00:43;13.90;99.90
10889;DHT22;5497;51.388;6.780;2023-02-15T12:03:12;14.00;99.90
10889;DHT22;5497;51.388;6.780;2023-02-15T12:05:42;14.10;99.90
10889;DHT22;5497;51.388;6.780;2023-02-15T12:08:15;14.30;99.90
10889;DHT22;5497;51.388;6.780;2023-02-15T12:10:46;14.50;99.90
10889;DHT22;5497;51.388;6.780;2023-02-15T12:13:18;14.50;99.90
10889;DHT22;5497;51.388;6.780;2023-02-15T12:15:47;14.50;99.90
10889;DHT22;5497;51.388;6.780;2023-02-15T12:18:19;14.50;99.90
10889;DHT22;5497;51.388;6.780;2023-02-15T12:20:47;14.70;99.90
10889;DHT22;5497;51.388;6.780;2023-02-15T12:23:15;14.70;99.90
10889;DHT22;5497;51.388;6.780;2023-02-15T12:25:43;14.80;99.90
10889;DHT22;5497;51.388;6.780;2023-02-15T12:28:20;14.90;99.90
10889;DHT22;5497;51.388;6.780;2023-02-15T12:30:51;15.00;99.90
10889;DHT22;5497;51.388;6.780;2023-02-15T12:33:22;15.10;99.90
10889;DHT22;5497;51.388;6.780;2023-02-15T12:35:54;15.30;99.90
10889;DHT22;5497;51.388;6.780;2023-02-15T12:38:23;15.40;99.90
10889;DHT22;5497;51.388;6.780;2023-02-15T12:40:56;15.50;99.90
10889;DHT22;5497;51.388;6.780;2023-02-15T12:43:27;15.70;99.90
10889;DHT22;5497;51.388;6.780;2023-02-15T12:46:14;15.90;99.90
10889;DHT22;5497;51.388;6.780;2023-02-15T12:48:46;16.00;99.90
10889;DHT22;5497;51.388;6.780;2023-02-15T12:51:14;16.10;99.90
10889;DHT22;5497;51.388;6.780;2023-02-15T12:53:42;16.20;99.90
10889;DHT22;5497;51.388;6.780;2023-02-15T12:56:09;16.20;99.90
10889;DHT22;5497;51.388;6.780;2023-02-15T12:58:37;16.30;99.90
10889;DHT22;5497;51.388;6.780;2023-02-15T13:01:09;16.30;99.90
10889;DHT22;5497;51.388;6.780;2023-02-15T13:03:40;16.30;99.90
10889;DHT22;5497;51.388;6.780;2023-02-15T13:06:18;16.30;99.90
10889;DHT22;5497;51.388;6.780;2023-02-15T13:08:46;16.30;99.90
10889;DHT22;5497;51.388;6.780;2023-02-15T13:11:19;16.40;99.90
10889;DHT22;5497;51.388;6.780;2023-02-15T13:14:03;16.40;99.90
10889;DHT22;5497;51.388;6.780;2023-02-15T13:16:44;16.50;99.90
10889;DHT22;5497;51.388;6.780;2023-02-15T13:19:16;16.50;99.90
10889;DHT22;5497;51.388;6.780;2023-02-15T13:21:48;16.50;99.90
10889;DHT22;5497;51.388;6.780;2023-02-15T13:24:17;16.50;99.90
10889;DHT22;5497;51.388;6.780;2023-02-15T13:26:47;16.50;99.90
10889;DHT22;5497;51.388;6.780;2023-02-15T13:29:18;16.40;99.90
10889;DHT22;5497;51.388;6.780;2023-02-15T13:31:45;16.40;99.90
10889;DHT22;5497;51.388;6.780;2023-02-15T13:34:14;16.40;99.90
10889;DHT22;5497;51.388;6.780;2023-02-15T13:36:45;16.40;99.90
10889;DHT22;5497;51.388;6.780;2023-02-15T13:39:19;16.40;99.90
10889;DHT22;5497;51.388;6.780;2023-02-15T13:41:54;16.30;99.90
10889;DHT22;5497;51.388;6.780;2023-02-15T13:44:27;16.30;99.90
10889;DHT22;5497;51.388;6.780;2023-02-15T13:47:00;16.30;99.90
10889;DHT22;5497;51.388;6.780;2023-02-15T13:49:35;16.30;99.90
10889;DHT22;5497;51.388;6.780;2023-02-15T13:52:17;16.30;99.90
10889;DHT22;5497;51.388;6.780;2023-02-15T13:54:48;16.30;99.90
10889;DHT22;5497;51.388;6.780;2023-02-15T13:57:22;17.00;99.90
10889;DHT22;5497;51.388;6.780;2023-02-15T13:59:54;16.40;99.90
10889;DHT22;5497;51.388;6.780;2023-02-15T14:02:36;16.50;99.90
10889;DHT22;5497;51.388;6.780;2023-02-15T14:05:11;16.50;99.90
10889;DHT22;5497;51.388;6.780;2023-02-15T14:07:47;16.60;99.90
10889;DHT22;5497;51.388;6.780;2023-02-15T14:10:30;16.60;99.90
10889;DHT22;5497;51.388;6.780;2023-02-15T14:15:46;16.50;99.90
10889;DHT22;5497;51.388;6.780;2023-02-15T14:18:19;16.40;99.90
10889;DHT22;5497;51.388;6.780;2023-02-15T14:20:58;16.40;99.90
10889;DHT22;5497;51.388;6.780;2023-02-15T14:23:32;16.20;99.90
10889;DHT22;5497;51.388;6.780;2023-02-15T14:26:02;16.10;99.90
10889;DHT22;5497;51.388;6.780;2023-02-15T14:28:34;15.90;99.90
10889;DHT22;5497;51.388;6.780;2023-02-15T14:31:03;15.70;99.90
10889;DHT22;5497;51.388;6.780;2023-02-15T14:33:32;15.70;99.90
10889;DHT22;5497;51.388;6.780;2023-02-15T14:36:02;15.50;99.90
10889;DHT22;5497;51.388;6.780;2023-02-15T14:38:36;15.30;99.90
10889;DHT22;5497;51.388;6.780;2023-02-15T14:41:07;15.10;99.90
10889;DHT22;5497;51.388;6.780;2023-02-15T14:43:46;15.10;99.90
10889;DHT22;5497;51.388;6.780;2023-02-15T14:46:18;15.00;99.90
10889;DHT22;5497;51.388;6.780;2023-02-15T14:48:48;14.90;99.90
10889;DHT22;5497;51.388;6.780;2023-02-15T14:54:03;14.60;99.90
10889;DHT22;5497;51.388;6.780;2023-02-15T14:56:30;14.50;99.90
10889;DHT22;5497;51.388;6.780;2023-02-15T14:58:59;14.50;99.90
10889;DHT22;5497;51.388;6.780;2023-02-15T15:01:27;14.50;99.90
10889;DHT22;5497;51.388;6.780;2023-02-15T15:03:55;14.40;99.90
10889;DHT22;5497;51.388;6.780;2023-02-15T15:06:24;14.40;99.90
10889;DHT22;5497;51.388;6.780;2023-02-15T15:08:52;14.30;99.90
10889;DHT22;5497;51.388;6.780;2023-02-15T15:11:42;14.30;99.90
10889;DHT22;5497;51.388;6.780;2023-02-15T15:14:10;14.30;99.90
10889;DHT22;5497;51.388;6.780;2023-02-15T15:16:48;14.30;99.90
10889;DHT22;5497;51.388;6.780;2023-02-15T15:22:03;14.20;99.90
10889;DHT22;5497;51.388;6.780;2023-02-15T15:24:49;14.20;99.90
10889;DHT22;5497;51.388;6.780;2023-02-15T15:32:50;14.10;99.90
10889;DHT22;5497;51.388;6.780;2023-02-15T15:35:23;14.00;99.90
10889;DHT22;5497;51.388;6.780;2023-02-15T15:37:59;13.90;99.90
10889;DHT22;5497;51.388;6.780;2023-02-15T15:40:42;13.90;99.90
10889;DHT22;5497;51.388;6.780;2023-02-15T15:43:23;13.90;99.90
10889;DHT22;5497;51.388;6.780;2023-02-15T15:48:41;13.70;99.90
10889;DHT22;5497;51.388;6.780;2023-02-15T15:51:11;13.50;99.90
10889;DHT22;5497;51.388;6.780;2023-02-15T15:53:40;13.40;99.90
10889;DHT22;5497;51.388;6.780;2023-02-15T15:56:12;13.30;99.90
10889;DHT22;5497;51.388;6.780;2023-02-15T15:58:42;13.00;99.90
10889;DHT22;5497;51.388;6.780;2023-02-15T16:03:36;13.00;99.90
10889;DHT22;5497;51.388;6.780;2023-02-15T16:06:04;12.80;99.90
10889;DHT22;5497;51.388;6.780;2023-02-15T16:08:33;12.80;99.90
10889;DHT22;5497;51.388;6.780;2023-02-15T16:11:01;12.70;99.90
10889;DHT22;5497;51.388;6.780;2023-02-15T16:13:33;12.60;99.90
10889;DHT22;5497;51.388;6.780;2023-02-15T16:16:00;12.50;99.90
10889;DHT22;5497;51.388;6.780;2023-02-15T16:18:27;12.40;99.90
10889;DHT22;5497;51.388;6.780;2023-02-15T16:20:54;12.30;99.90
10889;DHT22;5497;51.388;6.780;2023-02-15T16:26:08;12.10;99.90
10889;DHT22;5497;51.388;6.780;2023-02-15T16:28:38;11.90;99.90
10889;DHT22;5497;51.388;6.780;2023-02-15T16:31:05;11.80;99.90
10889;DHT22;5497;51.388;6.780;2023-02-15T16:33:36;13.50;99.90
10889;DHT22;5497;51.388;6.780;2023-02-15T16:36:04;11.50;99.90
10889;DHT22;5497;51.388;6.780;2023-02-15T16:41:20;11.30;99.90
10889;DHT22;5497;51.388;6.780;2023-02-15T16:43:48;11.10;99.90
10889;DHT22;5497;51.388;6.780;2023-02-15T16:46:16;11.00;99.90
10889;DHT22;5497;51.388;6.780;2023-02-15T16:48:45;10.90;99.90
10889;DHT22;5497;51.388;6.780;2023-02-15T16:51:17;10.70;99.90
10889;DHT22;5497;51.388;6.780;2023-02-15T16:53:46;10.60;99.90
10889;DHT22;5497;51.388;6.780;2023-02-15T16:56:14;10.50;99.90
10889;DHT22;5497;51.388;6.780;2023-02-15T16:58:43;10.50;99.90
10889;DHT22;5497;51.388;6.780;2023-02-15T17:01:11;10.40;99.90
10889;DHT22;5497;51.388;6.780;2023-02-15T17:03:38;10.30;99.90
10889;DHT22;5497;51.388;6.780;2023-02-15T17:06:16;10.20;99.90
10889;DHT22;5497;51.388;6.780;2023-02-15T17:08:44;10.10;99.90
10889;DHT22;5497;51.388;6.780;2023-02-15T17:11:13;10.00;99.90
10889;DHT22;5497;51.388;6.780;2023-02-15T17:16:25;9.90;99.90
10889;DHT22;5497;51.388;6.780;2023-02-15T17:18:53;9.40;99.90
10889;DHT22;5497;51.388;6.780;2023-02-15T17:21:24;9.80;99.90
10889;DHT22;5497;51.388;6.780;2023-02-15T17:23:51;9.70;99.90
10889;DHT22;5497;51.388;6.780;2023-02-15T17:26:24;9.70;99.90
10889;DHT22;5497;51.388;6.780;2023-02-15T17:28:53;9.70;99.90
10889;DHT22;5497;51.388;6.780;2023-02-15T17:31:23;9.60;99.90
10889;DHT22;5497;51.388;6.780;2023-02-15T17:33:52;9.60;99.90
10889;DHT22;5497;51.388;6.780;2023-02-15T17:36:21;9.60;99.90
10889;DHT22;5497;51.388;6.780;2023-02-15T17:38:59;9.50;99.90
10889;DHT22;5497;51.388;6.780;2023-02-15T17:41:27;9.50;99.90